Time;durP1;ratioP1;P1;durP2;ratioP2;P2;SDS_P1;SDS_P2;PMS_P1;PMS_P2;Temp;Humidity;BMP_temperature;BMP_pressure;BME280_temperature;BME280_humidity;BME280_pressure;Samples;Min_cycle;Max_cycle;Signal;HPM_P1;HPM_P2
2022/08/07 00:01:06;;;;;;;2.95;0.90;;;17.60;51.60;;;;;;5066838;28;20028;-63
2022/08/07 00:03:33;;;;;;;1.67;0.93;;;17.50;51.50;;;;;;5065111;28;20040;-63
2022/08/07 00:05:58;;;;;;;1.75;0.88;;;17.50;51.60;;;;;;5076271;28;20025;-63
2022/08/07 00:08:24;;;;;;;1.92;1.02;;;17.50;51.60;;;;;;5070330;28;20040;-62
2022/08/07 00:10:51;;;;;;;2.40;1.00;;;17.50;51.80;;;;;;5066056;28;20044;-62
2022/08/07 00:13:19;;;;;;;1.27;1.00;;;17.40;52.00;;;;;;5064482;28;20033;-62
2022/08/07 00:15:46;;;;;;;0.82;0.80;;;17.40;52.10;;;;;;5065495;28;20029;-62
2022/08/07 00:18:15;;;;;;;2.33;1.00;;;17.40;52.00;;;;;;5084800;28;20021;-64
2022/08/07 00:20:41;;;;;;;3.05;0.70;;;17.40;52.00;;;;;;5065667;28;20079;-62
2022/08/07 00:23:07;;;;;;;3.65;1.00;;;17.30;52.00;;;;;;5065129;28;20036;-62
2022/08/07 00:25:33;;;;;;;1.77;1.00;;;17.30;52.10;;;;;;5073782;28;20038;-62
2022/08/07 00:27:59;;;;;;;1.63;1.00;;;17.30;52.20;;;;;;5066545;28;20120;-63
2022/08/07 00:30:25;;;;;;;1.73;1.02;;;17.20;52.40;;;;;;5049405;28;20565;-63
2022/08/07 00:32:51;;;;;;;1.15;0.73;;;17.20;52.20;;;;;;5057139;28;20041;-62
2022/08/07 00:35:18;;;;;;;1.77;0.98;;;17.20;52.40;;;;;;5050901;28;20835;-63
2022/08/07 00:37:44;;;;;;;1.25;0.90;;;17.10;52.50;;;;;;5065054;28;20029;-62
2022/08/07 00:40:11;;;;;;;1.80;0.88;;;17.10;52.40;;;;;;5075247;28;20473;-65
2022/08/07 00:42:37;;;;;;;1.05;0.90;;;17.10;52.60;;;;;;5051928;28;20051;-65
2022/08/07 00:45:04;;;;;;;1.70;0.90;;;17.10;52.80;;;;;;5063574;28;20140;-63
2022/08/07 00:47:31;;;;;;;1.50;0.80;;;17.10;52.70;;;;;;5044739;28;20040;-65
2022/08/07 00:49:57;;;;;;;0.85;0.82;;;17.00;52.80;;;;;;5062495;28;20044;-63
2022/08/07 00:52:22;;;;;;;0.70;0.70;;;17.00;52.90;;;;;;5064121;28;20556;-63
2022/08/07 00:54:49;;;;;;;2.13;1.00;;;17.00;52.90;;;;;;5048783;28;20033;-63
2022/08/07 00:57:15;;;;;;;2.40;1.38;;;17.00;52.90;;;;;;5077233;28;20479;-62
2022/08/07 00:59:41;;;;;;;4.03;0.73;;;17.00;53.10;;;;;;5066385;28;20453;-62
2022/08/07 01:02:08;;;;;;;1.80;1.10;;;16.90;53.20;;;;;;5063137;28;20021;-62
2022/08/07 01:04:33;;;;;;;3.38;1.13;;;16.90;53.10;;;;;;5063300;28;20036;-62
2022/08/07 01:07:00;;;;;;;1.92;1.10;;;16.90;53.30;;;;;;5051815;28;20025;-64
2022/08/07 01:09:26;;;;;;;3.28;1.02;;;16.90;53.30;;;;;;5068093;28;20728;-63
2022/08/07 01:11:52;;;;;;;3.42;1.48;;;16.90;53.40;;;;;;5063678;28;20044;-63
2022/08/07 01:14:22;;;;;;;1.05;0.90;;;16.90;53.50;;;;;;5047862;28;20041;-64
2022/08/07 01:16:48;;;;;;;6.05;1.02;;;16.90;53.50;;;;;;5054094;28;20029;-63
2022/08/07 01:19:15;;;;;;;2.25;1.10;;;16.80;53.60;;;;;;5067117;28;20036;-63
2022/08/07 01:21:41;;;;;;;1.80;1.20;;;16.80;53.80;;;;;;5064092;28;20048;-63
2022/08/07 01:24:08;;;;;;;2.65;1.17;;;16.70;53.90;;;;;;5059335;28;20035;-63
2022/08/07 01:26:33;;;;;;;1.30;1.17;;;16.70;53.90;;;;;;4957782;28;20029;-64
2022/08/07 01:29:00;;;;;;;1.83;1.13;;;16.70;53.90;;;;;;5065769;28;20040;-64
2022/08/07 01:31:32;;;;;;;1.55;1.05;;;16.70;54.00;;;;;;5063195;28;20036;-62
2022/08/07 01:33:59;;;;;;;2.42;1.15;;;16.70;54.20;;;;;;5064314;28;20041;-63
2022/08/07 01:36:27;;;;;;;5.70;1.23;;;16.70;54.40;;;;;;5066702;28;20067;-62
2022/08/07 01:38:53;;;;;;;2.72;1.25;;;16.60;54.40;;;;;;5063433;28;20191;-62
2022/08/07 01:41:20;;;;;;;1.42;1.23;;;16.60;54.40;;;;;;5061545;28;20025;-62
2022/08/07 01:43:47;;;;;;;1.33;1.02;;;16.60;54.50;;;;;;5068367;28;20021;-63
2022/08/07 01:46:14;;;;;;;3.28;1.20;;;16.60;54.50;;;;;;5059202;28;20516;-63
2022/08/07 01:48:44;;;;;;;1.63;1.38;;;16.60;54.50;;;;;;5069772;28;20029;-64
2022/08/07 01:51:13;;;;;;;2.13;1.20;;;16.50;54.50;;;;;;5063020;28;20027;-62
2022/08/07 01:53:43;;;;;;;1.90;1.35;;;16.50;54.80;;;;;;5070874;28;20048;-63
2022/08/07 01:56:13;;;;;;;2.33;1.17;;;16.50;54.80;;;;;;5057993;28;20112;-62
2022/08/07 01:58:47;;;;;;;3.58;1.23;;;16.50;55.10;;;;;;5048728;28;20025;-62
2022/08/07 02:01:17;;;;;;;3.63;1.70;;;16.50;55.20;;;;;;5063020;28;20111;-64
2022/08/07 02:03:50;;;;;;;5.40;1.40;;;16.50;55.00;;;;;;5062859;28;20048;-63
2022/08/07 02:06:18;;;;;;;4.18;1.25;;;16.50;55.30;;;;;;5063616;28;20371;-63
2022/08/07 02:08:46;;;;;;;3.90;1.33;;;16.40;55.10;;;;;;5053226;28;20029;-63
2022/08/07 02:11:12;;;;;;;2.92;1.27;;;16.40;55.30;;;;;;5062082;28;20031;-63
2022/08/07 02:13:40;;;;;;;2.65;1.15;;;16.30;55.40;;;;;;5063511;28;20092;-63
2022/08/07 02:16:07;;;;;;;6.65;1.10;;;16.30;55.50;;;;;;5070530;28;20025;-63
2022/08/07 02:18:36;;;;;;;2.10;1.08;;;16.20;55.50;;;;;;5058235;28;20032;-63
2022/08/07 02:21:05;;;;;;;1.75;1.00;;;16.20;55.80;;;;;;5065393;28;20043;-62
2022/08/07 02:23:35;;;;;;;6.00;0.95;;;16.20;56.00;;;;;;5073319;28;20465;-64
2022/08/07 02:26:03;;;;;;;2.22;1.00;;;16.20;55.90;;;;;;5071329;28;20040;-62
2022/08/07 02:28:32;;;;;;;4.72;0.80;;;16.20;56.00;;;;;;5069288;28;20048;-63
2022/08/07 02:31:00;;;;;;;3.00;0.88;;;16.20;56.20;;;;;;5073046;28;20047;-62
2022/08/07 02:33:27;;;;;;;1.98;1.00;;;16.20;56.20;;;;;;5060513;28;20096;-63
2022/08/07 02:35:54;;;;;;;1.88;1.00;;;16.20;56.20;;;;;;5074495;28;20046;-63
2022/08/07 02:38:27;;;;;;;0.90;0.90;;;16.20;56.10;;;;;;5067804;28;20604;-63
2022/08/07 02:40:54;;;;;;;1.67;1.05;;;16.20;56.30;;;;;;5063486;28;20739;-62
2022/08/07 02:43:21;;;;;;;2.65;1.15;;;16.20;56.20;;;;;;5059970;28;20033;-62
2022/08/07 02:45:49;;;;;;;1.33;0.90;;;16.20;56.20;;;;;;5068652;28;20021;-63
2022/08/07 02:48:15;;;;;;;1.92;1.00;;;16.20;56.40;;;;;;5047242;28;20101;-64
2022/08/07 02:50:43;;;;;;;1.80;1.00;;;16.20;56.30;;;;;;5058415;28;20029;-63
2022/08/07 02:53:20;;;;;;;5.63;1.17;;;16.20;56.30;;;;;;5062003;28;20048;-63
2022/08/07 02:55:48;;;;;;;2.40;1.60;;;16.20;56.80;;;;;;5076552;28;20041;-62
2022/08/07 02:58:18;;;;;;;2.67;1.15;;;16.20;56.30;;;;;;5068005;28;20045;-63
2022/08/07 03:00:49;;;;;;;2.70;1.30;;;16.20;56.60;;;;;;5061465;28;20033;-63
2022/08/07 03:03:16;;;;;;;2.05;1.00;;;16.20;56.60;;;;;;5030535;28;20037;-62
2022/08/07 03:05:43;;;;;;;2.33;0.95;;;16.20;56.50;;;;;;5062278;28;20032;-63
2022/08/07 03:08:09;;;;;;;2.03;0.95;;;16.20;56.60;;;;;;5068284;28;20066;-62
2022/08/07 03:10:36;;;;;;;1.38;1.05;;;16.20;56.60;;;;;;5075061;28;20025;-63
2022/08/07 03:13:03;;;;;;;1.42;1.10;;;16.10;56.70;;;;;;5068076;28;20467;-62
2022/08/07 03:15:28;;;;;;;1.70;1.17;;;16.10;56.50;;;;;;5049829;28;20039;-64
2022/08/07 03:17:55;;;;;;;1.48;1.05;;;16.20;56.60;;;;;;5070046;28;20029;-62
2022/08/07 03:20:22;;;;;;;1.65;1.13;;;16.20;56.70;;;;;;5067826;28;20048;-62
2022/08/07 03:22:50;;;;;;;1.20;1.10;;;16.20;56.90;;;;;;5059052;28;20108;-63
2022/08/07 03:25:17;;;;;;;1.98;1.40;;;16.20;56.80;;;;;;5057767;28;20080;-61
2022/08/07 03:27:44;;;;;;;4.22;1.20;;;16.20;56.70;;;;;;5067574;28;20028;-62
2022/08/07 03:30:11;;;;;;;1.13;0.98;;;16.20;56.90;;;;;;5061948;28;20033;-62
2022/08/07 03:32:39;;;;;;;1.67;1.10;;;16.20;56.90;;;;;;5064240;28;20455;-63
2022/08/07 03:35:12;;;;;;;3.13;1.20;;;16.20;57.10;;;;;;5069104;28;20021;-62
2022/08/07 03:37:39;;;;;;;1.73;1.27;;;16.20;57.20;;;;;;5060475;28;20033;-63
2022/08/07 03:40:07;;;;;;;2.03;1.02;;;16.20;57.00;;;;;;5069557;28;20025;-62
2022/08/07 03:42:34;;;;;;;1.77;1.27;;;16.20;57.10;;;;;;5077500;28;20462;-64
2022/08/07 03:45:01;;;;;;;1.20;1.10;;;16.20;57.20;;;;;;5077020;28;20036;-63
2022/08/07 03:47:27;;;;;;;1.10;1.00;;;16.20;57.20;;;;;;5062306;28;20063;-64
2022/08/07 03:49:55;;;;;;;1.30;1.20;;;16.20;57.10;;;;;;5061273;28;20037;-65
2022/08/07 03:52:22;;;;;;;1.10;1.00;;;16.20;57.30;;;;;;5060003;28;20032;-63
2022/08/07 03:54:48;;;;;;;1.52;1.25;;;16.20;57.30;;;;;;5060692;28;20052;-63
2022/08/07 03:57:15;;;;;;;3.80;1.20;;;16.20;57.30;;;;;;5049731;28;20325;-64
2022/08/07 03:59:41;;;;;;;1.40;1.27;;;16.20;57.30;;;;;;5064743;28;20075;-62
2022/08/07 04:02:07;;;;;;;1.40;1.10;;;16.20;57.30;;;;;;5053058;28;20063;-63
2022/08/07 04:04:34;;;;;;;1.95;1.23;;;16.20;57.30;;;;;;5059203;28;20033;-65
2022/08/07 04:06:59;;;;;;;2.70;1.23;;;16.20;57.30;;;;;;5053317;28;20091;-62
2022/08/07 04:09:27;;;;;;;1.65;1.10;;;16.20;57.30;;;;;;5057990;28;20029;-63
2022/08/07 04:11:53;;;;;;;1.35;1.10;;;16.10;57.40;;;;;;5062400;28;20095;-64
2022/08/07 04:14:19;;;;;;;1.88;1.02;;;16.10;57.50;;;;;;5067806;28;20055;-64
2022/08/07 04:16:47;;;;;;;1.40;1.10;;;16.10;57.70;;;;;;5055989;28;20049;-63
2022/08/07 04:19:14;;;;;;;2.50;1.50;;;16.10;57.90;;;;;;5061969;28;20025;-63
2022/08/07 04:21:39;;;;;;;1.60;1.13;;;16.10;58.00;;;;;;5058936;28;20029;-63
2022/08/07 04:24:09;;;;;;;1.92;1.27;;;16.10;58.00;;;;;;5063209;28;20040;-62
2022/08/07 04:26:37;;;;;;;3.63;1.20;;;16.20;58.30;;;;;;5027089;28;20132;-64
2022/08/07 04:29:04;;;;;;;2.17;1.60;;;16.20;58.50;;;;;;5065222;28;20066;-63
2022/08/07 04:31:31;;;;;;;4.43;1.70;;;16.20;58.50;;;;;;5069474;28;20046;-62
2022/08/07 04:33:58;;;;;;;1.65;1.35;;;16.20;58.70;;;;;;5066128;28;20048;-65
2022/08/07 04:36:23;;;;;;;1.83;1.30;;;16.30;58.80;;;;;;5063284;28;20087;-63
2022/08/07 04:38:49;;;;;;;1.85;1.42;;;16.30;58.70;;;;;;5066028;28;20022;-63
2022/08/07 04:41:15;;;;;;;4.32;1.83;;;16.30;58.80;;;;;;5067861;28;20021;-62
2022/08/07 04:43:43;;;;;;;1.58;1.30;;;16.30;58.90;;;;;;5053094;28;20029;-62
2022/08/07 04:46:15;;;;;;;2.25;1.67;;;16.30;58.80;;;;;;5071210;28;20028;-63
2022/08/07 04:48:48;;;;;;;3.13;1.90;;;16.30;59.20;;;;;;5063775;28;20096;-63
2022/08/07 04:51:26;;;;;;;1.88;1.75;;;16.40;59.50;;;;;;5058819;28;20087;-62
2022/08/07 04:54:29;;;;;;;7.03;2.08;;;16.40;59.30;;;;;;5048258;28;20045;-62
2022/08/07 04:57:01;;;;;;;2.72;2.13;;;16.40;60.70;;;;;;5064669;28;20057;-63
2022/08/07 04:59:35;;;;;;;6.47;2.35;;;16.40;59.40;;;;;;5061760;28;20037;-62
2022/08/07 05:02:32;;;;;;;5.25;2.47;;;16.40;60.10;;;;;;5064381;28;20091;-63
2022/08/07 05:05:10;;;;;;;3.15;2.03;;;16.50;60.60;;;;;;5056710;28;20041;-63
2022/08/07 05:07:42;;;;;;;2.30;2.10;;;16.60;59.60;;;;;;5064613;28;20036;-63
2022/08/07 05:10:17;;;;;;;2.97;1.90;;;16.60;60.00;;;;;;5049932;28;20767;-62
2022/08/07 05:12:51;;;;;;;2.22;2.03;;;16.60;60.20;;;;;;5047162;28;20036;-64
2022/08/07 05:15:22;;;;;;;3.10;2.20;;;16.70;60.20;;;;;;5063875;28;20450;-63
2022/08/07 05:17:57;;;;;;;2.45;2.13;;;16.80;60.00;;;;;;5053710;28;20059;-62
2022/08/07 05:20:26;;;;;;;2.33;2.10;;;16.80;60.30;;;;;;5055091;28;20093;-63
2022/08/07 05:22:58;;;;;;;2.55;2.10;;;16.90;60.40;;;;;;5070239;28;20109;-62
2022/08/07 05:25:27;;;;;;;3.65;2.40;;;17.00;60.60;;;;;;5059464;28;20108;-62
2022/08/07 05:27:53;;;;;;;2.20;2.00;;;17.10;60.40;;;;;;5064341;28;20029;-63
2022/08/07 05:30:19;;;;;;;2.63;2.17;;;17.20;60.20;;;;;;5070010;28;20025;-63
2022/08/07 05:32:46;;;;;;;2.20;1.98;;;17.20;60.40;;;;;;5063048;28;20028;-63
2022/08/07 05:35:14;;;;;;;3.33;2.38;;;17.30;60.30;;;;;;5066630;28;20094;-63
2022/08/07 05:37:40;;;;;;;3.40;2.30;;;17.40;60.40;;;;;;5065626;28;20017;-62
2022/08/07 05:40:08;;;;;;;3.22;2.28;;;17.50;60.40;;;;;;5071067;28;20029;-63
2022/08/07 05:42:34;;;;;;;3.75;2.03;;;17.60;60.60;;;;;;5062782;28;20046;-63
2022/08/07 05:45:03;;;;;;;3.85;2.05;;;17.70;60.70;;;;;;5063371;28;20021;-62
2022/08/07 05:47:30;;;;;;;3.03;1.90;;;17.80;60.80;;;;;;5061309;28;20083;-63
2022/08/07 05:49:56;;;;;;;2.63;1.98;;;17.90;60.70;;;;;;5080245;28;20033;-63
2022/08/07 05:52:22;;;;;;;3.10;1.75;;;18.10;60.80;;;;;;5062463;28;20029;-63
2022/08/07 05:54:48;;;;;;;2.05;1.80;;;18.20;60.60;;;;;;5042123;28;20025;-62
2022/08/07 05:57:16;;;;;;;2.30;1.73;;;18.40;60.60;;;;;;5063383;28;20060;-64
2022/08/07 05:59:45;;;;;;;1.80;1.70;;;18.50;60.60;;;;;;5064959;28;20021;-63
2022/08/07 06:02:14;;;;;;;2.97;1.45;;;18.70;60.30;;;;;;5072899;28;20021;-63
2022/08/07 06:04:47;;;;;;;3.10;1.42;;;18.90;60.10;;;;;;5077613;28;20017;-63
2022/08/07 06:07:14;;;;;;;2.67;1.47;;;19.00;59.70;;;;;;5061733;28;20032;-62
2022/08/07 06:09:40;;;;;;;2.25;1.40;;;19.20;59.40;;;;;;5060388;28;20101;-62
2022/08/07 06:12:07;;;;;;;2.05;1.80;;;19.40;59.30;;;;;;5066998;28;20029;-63
2022/08/07 06:14:32;;;;;;;2.80;1.40;;;19.60;58.90;;;;;;5065187;28;20037;-63
2022/08/07 06:16:59;;;;;;;2.10;1.20;;;19.70;58.40;;;;;;5068124;28;20074;-64
2022/08/07 06:19:27;;;;;;;1.52;1.20;;;19.90;58.00;;;;;;5061016;28;20036;-64
2022/08/07 06:21:53;;;;;;;4.82;0.90;;;20.10;57.40;;;;;;5062784;28;20033;-63
2022/08/07 06:24:19;;;;;;;0.80;0.80;;;20.20;57.00;;;;;;5065234;28;20025;-62
2022/08/07 06:26:44;;;;;;;0.80;0.80;;;20.40;56.30;;;;;;5063756;28;20132;-64
2022/08/07 06:29:10;;;;;;;1.48;0.80;;;20.50;56.20;;;;;;5060938;28;20043;-63
2022/08/07 06:31:36;;;;;;;1.45;1.00;;;20.70;55.40;;;;;;5037609;28;20061;-63
2022/08/07 06:34:02;;;;;;;1.33;0.80;;;20.80;55.30;;;;;;5061735;28;20036;-64
2022/08/07 06:36:27;;;;;;;3.22;1.55;;;20.90;54.60;;;;;;5065069;28;20132;-63
2022/08/07 06:38:54;;;;;;;1.55;1.00;;;21.10;54.20;;;;;;5061414;28;20044;-63
2022/08/07 06:41:27;;;;;;;0.85;0.63;;;21.20;54.00;;;;;;5082938;28;20032;-65
2022/08/07 06:43:53;;;;;;;1.27;0.60;;;21.30;53.60;;;;;;5053230;28;20040;-63
2022/08/07 06:46:19;;;;;;;0.85;0.70;;;21.50;53.40;;;;;;5067641;28;20043;-64
2022/08/07 06:48:45;;;;;;;1.52;0.82;;;21.60;52.90;;;;;;5066027;28;20025;-64
2022/08/07 06:51:16;;;;;;;1.60;0.70;;;21.70;52.70;;;;;;5063471;28;20032;-63
2022/08/07 06:53:43;;;;;;;1.23;0.80;;;21.80;51.90;;;;;;5063991;28;20037;-63
2022/08/07 06:56:12;;;;;;;2.42;0.70;;;21.90;51.00;;;;;;5070457;28;20077;-64
2022/08/07 06:58:39;;;;;;;0.80;0.60;;;22.10;50.30;;;;;;5068982;28;20031;-63
2022/08/07 07:01:07;;;;;;;1.60;0.85;;;22.10;50.60;;;;;;5068095;28;20032;-63
2022/08/07 07:03:37;;;;;;;3.00;0.60;;;22.20;49.70;;;;;;5070097;28;20040;-63
2022/08/07 07:06:02;;;;;;;1.35;0.50;;;22.30;49.90;;;;;;5065915;28;20052;-64
2022/08/07 07:08:29;;;;;;;0.50;0.50;;;22.40;49.40;;;;;;5083896;28;20039;-63
2022/08/07 07:10:55;;;;;;;0.63;0.60;;;22.50;49.50;;;;;;5081437;28;20028;-63
2022/08/07 07:13:37;;;;;;;1.90;0.70;;;22.60;49.70;;;;;;5081812;28;20131;-63
2022/08/07 07:16:15;;;;;;;0.93;0.60;;;22.70;48.80;;;;;;5070671;28;20403;-62
2022/08/07 07:18:50;;;;;;;1.33;0.60;;;22.80;47.80;;;;;;5073984;28;20067;-62
2022/08/07 07:21:25;;;;;;;0.90;0.50;;;22.90;48.30;;;;;;5072863;28;20035;-62
2022/08/07 07:23:52;;;;;;;0.45;0.45;;;23.00;47.90;;;;;;5078694;28;20028;-62
2022/08/07 07:26:21;;;;;;;2.50;0.50;;;23.20;48.50;;;;;;5015118;28;20033;-62
2022/08/07 07:28:58;;;;;;;3.17;0.90;;;23.30;48.10;;;;;;5068910;28;20025;-63
2022/08/07 07:31:32;;;;;;;1.58;0.80;;;23.50;46.60;;;;;;5062718;28;20036;-62
2022/08/07 07:34:03;;;;;;;0.80;0.43;;;23.60;46.70;;;;;;5082026;28;20062;-62
2022/08/07 07:36:30;;;;;;;0.82;0.60;;;23.70;46.70;;;;;;5074312;28;20037;-61
2022/08/07 07:38:57;;;;;;;0.93;0.50;;;23.80;46.70;;;;;;5081845;28;20025;-62
2022/08/07 07:41:24;;;;;;;1.17;0.60;;;23.90;46.20;;;;;;5080939;28;20044;-63
2022/08/07 07:43:52;;;;;;;0.93;0.52;;;24.00;45.70;;;;;;5079901;28;20025;-63
2022/08/07 07:46:21;;;;;;;1.35;0.50;;;24.10;45.60;;;;;;5079266;28;20086;-63
2022/08/07 07:48:49;;;;;;;1.05;0.60;;;24.20;45.20;;;;;;5079251;28;20029;-62
2022/08/07 07:51:17;;;;;;;1.08;0.50;;;24.30;45.00;;;;;;5081023;28;20085;-63
2022/08/07 07:53:45;;;;;;;0.93;0.50;;;24.50;44.70;;;;;;5081272;28;20071;-63
2022/08/07 07:56:12;;;;;;;0.93;0.40;;;24.50;45.10;;;;;;5077620;28;20071;-63
2022/08/07 07:58:40;;;;;;;0.95;0.35;;;24.70;44.50;;;;;;5080598;28;20033;-64
2022/08/07 08:01:10;;;;;;;0.40;0.40;;;24.80;43.40;;;;;;5083054;28;20447;-63
2022/08/07 08:03:39;;;;;;;1.08;0.50;;;24.80;43.50;;;;;;5085972;28;20097;-63
2022/08/07 08:06:06;;;;;;;1.17;0.50;;;25.00;42.60;;;;;;5081651;28;20051;-62
2022/08/07 08:08:34;;;;;;;0.38;0.38;;;25.10;42.70;;;;;;5085361;28;20029;-62
2022/08/07 08:11:01;;;;;;;0.68;0.57;;;25.20;42.80;;;;;;5084623;28;20028;-64
2022/08/07 08:13:28;;;;;;;2.20;0.40;;;25.30;43.00;;;;;;5084172;28;20047;-64
2022/08/07 08:15:57;;;;;;;1.13;0.50;;;25.40;42.50;;;;;;5083875;28;20108;-62
2022/08/07 08:18:25;;;;;;;5.18;0.50;;;25.50;42.50;;;;;;5084924;28;20106;-63
2022/08/07 08:20:51;;;;;;;0.50;0.50;;;25.60;42.10;;;;;;5078042;28;20037;-62
2022/08/07 08:27:03;;;;;;;0.40;0.30;;;25.80;41.30;;;;;;5083459;28;20036;-64
2022/08/07 08:28:52;;;;;;;0.75;0.40;;;25.90;40.60;;;;;;5079356;28;20041;-64
2022/08/07 08:31:28;;;;;;;0.75;0.40;;;26.00;39.80;;;;;;5084031;28;20058;-63
2022/08/07 08:33:56;;;;;;;1.25;0.45;;;26.10;36.80;;;;;;5085709;28;20036;-64
2022/08/07 08:36:29;;;;;;;2.97;0.43;;;26.10;37.80;;;;;;5081574;28;20146;-62
2022/08/07 08:38:56;;;;;;;0.30;0.30;;;26.10;37.50;;;;;;5081492;28;20060;-64
2022/08/07 08:41:28;;;;;;;1.08;0.45;;;26.10;37.90;;;;;;5080386;28;20060;-64
2022/08/07 08:44:00;;;;;;;1.10;0.40;;;26.10;37.90;;;;;;5086156;28;20036;-65
2022/08/07 08:46:47;;;;;;;2.22;0.57;;;26.10;38.10;;;;;;5076085;28;20044;-62
2022/08/07 08:49:45;;;;;;;2.22;0.63;;;26.10;37.80;;;;;;5084346;28;20036;-64
2022/08/07 08:52:24;;;;;;;0.85;0.40;;;26.20;38.70;;;;;;5054995;28;20048;-65
2022/08/07 08:55:01;;;;;;;0.30;0.30;;;26.30;37.80;;;;;;5066335;28;20109;-65
2022/08/07 08:57:43;;;;;;;0.90;0.30;;;26.30;37.50;;;;;;5072710;28;20048;-62
2022/08/07 09:00:10;;;;;;;0.40;0.40;;;26.40;37.40;;;;;;5067771;28;20040;-64
2022/08/07 09:02:56;;;;;;;3.33;0.68;;;26.50;38.40;;;;;;5062828;28;20029;-64
2022/08/07 09:05:24;;;;;;;1.23;0.70;;;26.50;38.30;;;;;;5063686;28;20036;-62
2022/08/07 09:08:18;;;;;;;0.82;0.50;;;26.60;38.50;;;;;;5062603;28;20089;-61
2022/08/07 09:10:59;;;;;;;0.77;0.43;;;26.60;36.90;;;;;;5038108;28;20049;-64
2022/08/07 09:13:44;;;;;;;1.15;0.50;;;26.70;37.50;;;;;;5063855;28;20082;-64
2022/08/07 09:16:17;;;;;;;1.90;0.60;;;26.70;38.00;;;;;;5067563;28;20029;-64
2022/08/07 09:19:01;;;;;;;0.57;0.50;;;26.80;38.30;;;;;;5060950;28;20025;-64
2022/08/07 09:21:29;;;;;;;0.52;0.50;;;26.80;38.10;;;;;;5065695;28;20025;-63
2022/08/07 09:24:16;;;;;;;1.10;0.50;;;26.80;38.50;;;;;;5070565;28;20037;-63
2022/08/07 09:27:03;;;;;;;2.25;0.60;;;26.90;38.50;;;;;;5059584;28;20040;-63
2022/08/07 09:29:38;;;;;;;0.52;0.43;;;26.90;37.90;;;;;;5067517;28;20013;-63
2022/08/07 09:32:19;;;;;;;1.05;0.60;;;26.90;38.20;;;;;;5065578;28;20041;-64
2022/08/07 09:34:57;;;;;;;0.90;0.60;;;27.00;37.10;;;;;;5057828;28;20189;-64
2022/08/07 09:37:53;;;;;;;2.00;0.82;;;27.10;37.90;;;;;;5061812;28;20045;-64
2022/08/07 09:40:31;;;;;;;1.25;0.50;;;27.10;37.40;;;;;;5059388;28;20575;-63
2022/08/07 09:43:27;;;;;;;0.70;0.50;;;27.20;38.30;;;;;;5043161;28;20032;-64
2022/08/07 09:46:16;;;;;;;0.80;0.50;;;27.30;36.60;;;;;;5064090;28;20079;-65
2022/08/07 09:48:47;;;;;;;1.05;0.50;;;27.30;37.60;;;;;;5058412;28;20029;-64
2022/08/07 09:51:37;;;;;;;0.68;0.45;;;27.40;37.60;;;;;;5044113;28;20047;-64
2022/08/07 09:54:07;;;;;;;2.42;0.55;;;27.50;38.00;;;;;;5063605;28;20041;-65
2022/08/07 09:57:11;;;;;;;3.15;0.50;;;27.60;38.30;;;;;;5067284;28;20094;-63
2022/08/07 09:59:57;;;;;;;0.93;0.50;;;27.70;36.30;;;;;;5083877;28;20032;-64
2022/08/07 10:02:40;;;;;;;0.65;0.40;;;27.90;37.80;;;;;;5052880;28;20060;-64
2022/08/07 10:05:31;;;;;;;0.77;0.50;;;28.00;36.80;;;;;;5084416;28;20494;-64
2022/08/07 10:08:14;;;;;;;1.73;0.47;;;28.10;35.80;;;;;;5076317;28;20033;-64
2022/08/07 10:11:02;;;;;;;3.50;0.70;;;28.20;35.30;;;;;;5082862;28;20040;-62
2022/08/07 10:14:09;;;;;;;1.50;0.80;;;28.30;34.70;;;;;;5079738;28;20037;-63
2022/08/07 10:16:37;;;;;;;1.85;0.60;;;28.30;35.00;;;;;;5058160;28;20596;-64
2022/08/07 10:19:06;;;;;;;5.70;2.75;;;28.40;35.70;;;;;;5082371;28;20029;-62
2022/08/07 10:21:43;;;;;;;1.40;0.93;;;28.40;35.50;;;;;;5082261;28;20032;-63
2022/08/07 10:24:30;;;;;;;1.88;1.08;;;28.30;35.10;;;;;;5079144;28;20033;-63
2022/08/07 10:27:08;;;;;;;7.53;5.00;;;28.40;35.20;;;;;;4979907;28;20039;-63
2022/08/07 10:29:57;;;;;;;65.60;40.00;;;28.40;35.10;;;;;;5082965;28;20024;-64
2022/08/07 10:32:34;;;;;;;21.13;15.18;;;28.40;35.00;;;;;;5077787;28;20035;-64
2022/08/07 10:35:12;;;;;;;4.20;3.63;;;28.50;34.30;;;;;;5081202;28;20692;-65
2022/08/07 10:38:01;;;;;;;2.30;1.60;;;28.40;34.50;;;;;;5080848;28;20033;-64
2022/08/07 10:40:39;;;;;;;1.08;0.82;;;28.40;34.70;;;;;;5073445;28;20043;-64
2022/08/07 10:43:42;;;;;;;0.65;0.50;;;28.40;34.40;;;;;;5077054;28;20081;-65
2022/08/07 10:46:25;;;;;;;0.85;0.63;;;28.50;35.40;;;;;;5079076;28;20032;-65
2022/08/07 10:49:25;;;;;;;1.42;0.50;;;28.50;34.80;;;;;;5083640;28;20040;-64
2022/08/07 10:51:58;;;;;;;0.70;0.70;;;28.60;35.40;;;;;;5080600;28;20024;-63
2022/08/07 10:55:07;;;;;;;0.55;0.40;;;28.80;35.20;;;;;;5069812;28;20060;-64
2022/08/07 10:57:45;;;;;;;0.55;0.43;;;28.90;30.30;;;;;;5002469;28;20783;-64
2022/08/07 11:00:15;;;;;;;0.73;0.43;;;28.90;33.90;;;;;;5008861;28;20085;-65
2022/08/07 11:02:45;;;;;;;2.60;0.60;;;28.90;33.80;;;;;;5011018;28;20046;-65
2022/08/07 11:05:28;;;;;;;0.60;0.55;;;29.00;34.60;;;;;;5002891;28;20098;-65
2022/08/07 11:08:18;;;;;;;0.73;0.50;;;29.00;33.60;;;;;;5003645;28;20054;-65
2022/08/07 11:10:58;;;;;;;0.65;0.43;;;29.00;34.60;;;;;;5010591;28;20041;-65
2022/08/07 11:13:47;;;;;;;2.90;0.60;;;29.10;34.00;;;;;;5004245;28;20078;-64
2022/08/07 11:16:23;;;;;;;1.27;0.52;;;29.10;34.20;;;;;;5023485;28;20141;-64
2022/08/07 11:18:55;;;;;;;1.10;0.60;;;29.10;34.30;;;;;;5000718;28;20026;-64
2022/08/07 11:21:27;;;;;;;1.92;0.93;;;29.10;34.20;;;;;;5009323;28;20046;-66
2022/08/07 11:24:28;;;;;;;1.35;0.70;;;29.10;33.50;;;;;;5002272;28;20072;-63
2022/08/07 11:27:08;;;;;;;2.40;0.60;;;29.10;33.70;;;;;;4996111;28;20165;-64
2022/08/07 11:30:04;;;;;;;1.10;0.70;;;29.10;34.30;;;;;;4999645;28;20073;-65
2022/08/07 11:32:29;;;;;;;1.17;0.50;;;29.20;33.20;;;;;;5029857;28;20067;-64
2022/08/07 11:35:05;;;;;;;1.55;0.55;;;29.30;34.80;;;;;;5082156;28;20482;-64
2022/08/07 11:37:41;;;;;;;1.42;0.80;;;29.40;33.90;;;;;;5080909;28;20041;-63
2022/08/07 11:40:13;;;;;;;0.88;0.50;;;29.50;33.70;;;;;;5082439;28;20076;-64
2022/08/07 11:43:03;;;;;;;5.20;0.68;;;29.50;33.40;;;;;;5073647;28;20033;-64
2022/08/07 11:45:50;;;;;;;2.17;0.50;;;29.60;33.70;;;;;;5082439;28;20021;-64
2022/08/07 11:48:25;;;;;;;1.33;0.55;;;29.80;33.50;;;;;;5083456;28;20016;-64
2022/08/07 11:51:16;;;;;;;1.35;0.60;;;29.90;32.60;;;;;;5080926;28;20032;-63
2022/08/07 11:54:15;;;;;;;2.38;0.50;;;30.00;32.70;;;;;;5077385;28;20040;-64
2022/08/07 11:56:58;;;;;;;2.03;0.50;;;30.10;32.10;;;;;;5075581;28;20394;-65
2022/08/07 11:59:42;;;;;;;1.45;0.60;;;30.20;32.60;;;;;;5057962;28;20079;-66
2022/08/07 12:02:36;;;;;;;1.05;0.40;;;30.30;32.70;;;;;;5058212;28;20040;-64
2022/08/07 12:05:18;;;;;;;0.88;0.70;;;30.30;32.40;;;;;;5041947;28;20031;-65
2022/08/07 12:07:53;;;;;;;0.80;0.55;;;30.40;32.40;;;;;;5050803;28;20037;-65
2022/08/07 12:10:29;;;;;;;1.15;0.50;;;30.50;32.00;;;;;;5055797;28;20028;-65
2022/08/07 12:13:30;;;;;;;0.40;0.40;;;30.50;31.20;;;;;;5069243;28;20048;-65
2022/08/07 12:16:08;;;;;;;0.45;0.38;;;30.60;32.10;;;;;;5057891;28;20125;-64
2022/08/07 12:18:49;;;;;;;0.65;0.50;;;30.70;31.50;;;;;;5056827;28;20742;-64
2022/08/07 12:21:38;;;;;;;0.55;0.30;;;30.70;31.40;;;;;;5082486;28;20036;-65
2022/08/07 12:24:31;;;;;;;0.88;0.43;;;30.80;31.10;;;;;;5060030;28;20036;-64
2022/08/07 12:27:15;;;;;;;0.52;0.40;;;30.80;30.70;;;;;;5059426;28;20066;-65
2022/08/07 12:30:03;;;;;;;1.20;0.30;;;30.90;30.60;;;;;;5062219;28;20029;-64
2022/08/07 12:33:17;;;;;;;1.27;0.60;;;30.80;31.10;;;;;;5061050;28;20037;-65
2022/08/07 12:35:45;;;;;;;0.43;0.40;;;30.90;29.30;;;;;;5045712;28;20096;-65
2022/08/07 12:38:13;;;;;;;0.75;0.45;;;30.90;30.60;;;;;;5068403;28;20033;-65
2022/08/07 12:40:41;;;;;;;0.65;0.40;;;30.90;30.60;;;;;;5064565;28;20029;-65
2022/08/07 12:43:09;;;;;;;0.73;0.50;;;31.00;30.00;;;;;;5064996;28;20040;-65
2022/08/07 12:46:01;;;;;;;1.88;0.55;;;31.00;30.00;;;;;;5076975;28;20025;-65
2022/08/07 12:48:49;;;;;;;0.70;0.40;;;31.10;29.50;;;;;;5062545;28;20025;-65
2022/08/07 12:51:19;;;;;;;0.38;0.30;;;31.20;29.90;;;;;;5061062;28;20041;-64
2022/08/07 12:53:59;;;;;;;0.47;0.40;;;31.30;30.30;;;;;;5060884;28;20037;-64
2022/08/07 12:56:28;;;;;;;1.20;0.50;;;31.30;30.00;;;;;;5071759;28;20479;-65
2022/08/07 12:58:55;;;;;;;1.75;0.47;;;31.40;30.10;;;;;;5066407;28;20097;-65
2022/08/07 13:01:46;;;;;;;1.55;0.60;;;31.60;29.80;;;;;;5084147;28;20054;-66
2022/08/07 13:04:14;;;;;;;0.73;0.40;;;31.60;28.30;;;;;;5065873;28;20040;-67
2022/08/07 13:07:16;;;;;;;0.77;0.50;;;31.70;29.40;;;;;;5084713;28;20036;-65
2022/08/07 13:10:03;;;;;;;0.95;0.50;;;31.80;29.20;;;;;;5067048;28;20032;-65
2022/08/07 13:13:09;;;;;;;0.40;0.40;;;31.90;29.50;;;;;;5080528;28;20595;-66
2022/08/07 13:15:53;;;;;;;3.35;0.60;;;32.00;26.70;;;;;;5065970;28;20451;-65
2022/08/07 13:19:04;;;;;;;1.00;0.50;;;32.10;28.50;;;;;;5083007;28;20059;-65